»·PEaware :: N102MR KSEE-KTOA

N102MR :: KSEE-KTOA

FLIGHT INFORMATION

Flight Status: Arrived
Operator: Privately registered:
United States
More flights under this callsign
Pilot: Michael R. (16974)
Aircraft: CESSNA 172 SKYHAWK
(C172)
More flights by this aircraft type
Origin: KSEE Gillespie
United States
Destination: KTOA Zamperini
United States
More flights between these airports :: More routes between these airports
Route: +OCN V23 SLI
File this flight plan on PilotEdge
Remarks:
Altitude:
(Current/Filed)
6,000ft
Speed:
(Current/Filed)
115kts
Departed: 17-Nov-17 08:14 PM
Arrived: 17-Nov-17 09:15 PM
Distance/Time
Traveled:
90nm/1:01
Distance/Time
To Go:
Arrived

Flight Plot

Page will automatically refresh every two minutes.


Map Options




Map Legend


Flown Route
Filed Route
Departure Airport
Arrival Airport
Navaid (VOR, NDB)
Fix

Horizontal Profiles

Position Reports

Time Latitude Longitude Heading Altitude Ground
Speed
17-Nov-17 19:35 32.824828 -116.968130 14 383ft 0kts
17-Nov-17 19:36 32.824828 -116.968130 14 383ft 0kts
17-Nov-17 19:37 32.824828 -116.968130 14 383ft 0kts
17-Nov-17 19:38 32.824828 -116.968130 14 383ft 0kts
17-Nov-17 19:39 32.824828 -116.968130 14 383ft 0kts
17-Nov-17 19:40 32.824828 -116.968130 14 383ft 0kts
17-Nov-17 19:41 32.824828 -116.968130 14 383ft 0kts
17-Nov-17 19:42 32.824828 -116.968130 14 383ft 0kts
17-Nov-17 19:43 32.824828 -116.968130 14 383ft 0kts
17-Nov-17 19:44 32.824828 -116.968130 14 383ft 0kts
17-Nov-17 19:45 32.824828 -116.968130 14 383ft 0kts
17-Nov-17 19:46 32.824828 -116.968130 14 383ft 0kts
17-Nov-17 19:47 32.824828 -116.968130 14 383ft 0kts
17-Nov-17 19:48 32.824828 -116.968130 14 383ft 0kts
17-Nov-17 19:49 32.824828 -116.968130 14 383ft 0kts
17-Nov-17 19:50 32.824828 -116.968130 14 383ft 0kts
17-Nov-17 19:51 32.824828 -116.968130 14 383ft 0kts
17-Nov-17 19:52 32.824828 -116.968130 14 383ft 0kts
17-Nov-17 19:53 32.824828 -116.968130 14 383ft 0kts
17-Nov-17 19:54 32.824828 -116.968130 14 383ft 0kts
17-Nov-17 19:55 32.824828 -116.968130 14 383ft 0kts
17-Nov-17 19:56 32.824828 -116.968130 14 383ft 0kts
17-Nov-17 19:57 32.824828 -116.968130 14 383ft 0kts
17-Nov-17 19:58 32.824828 -116.968130 14 383ft 0kts
17-Nov-17 19:59 32.824828 -116.968130 14 383ft 0kts
17-Nov-17 20:00 32.824828 -116.968130 14 383ft 0kts
17-Nov-17 20:01 32.824828 -116.968130 14 383ft 0kts
17-Nov-17 20:02 32.824828 -116.968130 14 383ft 0kts
17-Nov-17 20:03 32.824828 -116.968130 14 383ft 0kts
17-Nov-17 20:04 32.824828 -116.968130 14 383ft 0kts
17-Nov-17 20:05 32.824828 -116.968130 14 383ft 0kts
17-Nov-17 20:06 32.824828 -116.968130 14 383ft 0kts
17-Nov-17 20:07 32.824828 -116.968130 14 383ft 0kts
17-Nov-17 20:08 32.824828 -116.968130 14 383ft 0kts
17-Nov-17 20:09 32.824828 -116.968130 14 383ft 0kts
17-Nov-17 20:10 32.824828 -116.968130 14 383ft 0kts
17-Nov-17 20:11 32.824786 -116.967521 101 385ft 0kts
17-Nov-17 20:12 32.824773 -116.965012 95 391ft 16kts
17-Nov-17 20:13 32.826052 -116.964470 327 392ft 0kts
17-Nov-17 20:14 32.826052 -116.964470 327 392ft 0kts
17-Nov-17 20:15 32.826052 -116.964470 327 392ft 0kts
17-Nov-17 20:16 32.826052 -116.964470 327 392ft 0kts
17-Nov-17 20:17 32.826063 -116.964478 326 392ft 2kts
17-Nov-17 20:18 32.826878 -116.966955 281 386ft 0kts
17-Nov-17 20:19 32.830105 -116.982909 284 762ft 85kts
17-Nov-17 20:20 32.853122 -116.994749 350 1474ft 104kts
17-Nov-17 20:21 32.882611 -117.000085 350 2172ft 107kts
17-Nov-17 20:22 32.906064 -117.016887 312 2859ft 104kts
17-Nov-17 20:23 32.924601 -117.041702 313 3544ft 97kts
17-Nov-17 20:24 32.940944 -117.065273 311 4223ft 89kts
17-Nov-17 20:25 32.956138 -117.087429 313 4903ft 84kts
17-Nov-17 20:26 32.970319 -117.107889 313 5578ft 76kts
17-Nov-17 20:27 32.984288 -117.127771 312 6023ft 91kts
17-Nov-17 20:28 33.001154 -117.151482 313 6011ft 84kts
17-Nov-17 20:29 33.016558 -117.172816 313 6017ft 88kts
17-Nov-17 20:30 33.033008 -117.195087 316 6015ft 90kts
17-Nov-17 20:31 33.051280 -117.215511 318 6015ft 92kts
17-Nov-17 20:32 33.070679 -117.236109 314 6006ft 93kts
17-Nov-17 20:33 33.090324 -117.256688 316 6007ft 95kts
17-Nov-17 20:34 33.109707 -117.277474 316 6010ft 97kts
17-Nov-17 20:35 33.126440 -117.295461 316 6009ft 96kts
17-Nov-17 20:36 33.149738 -117.320602 316 6009ft 96kts
17-Nov-17 20:37 33.169599 -117.342112 316 6009ft 96kts
17-Nov-17 20:38 33.186188 -117.360126 316 6009ft 96kts
17-Nov-17 20:39 33.205980 -117.381675 316 6014ft 96kts
17-Nov-17 20:40 33.228263 -117.407752 316 6017ft 96kts
17-Nov-17 20:41 33.244834 -117.425598 309 6017ft 96kts
17-Nov-17 20:42 33.263148 -117.448900 313 6027ft 97kts
17-Nov-17 20:43 33.282164 -117.471791 314 6027ft 97kts
17-Nov-17 20:44 33.304627 -117.498318 315 6026ft 97kts
17-Nov-17 20:45 33.320617 -117.517091 315 6026ft 97kts
17-Nov-17 20:46 33.339961 -117.539762 315 6026ft 97kts
17-Nov-17 20:47 33.359259 -117.562373 315 6026ft 97kts
17-Nov-17 20:48 33.376442 -117.587261 308 6026ft 97kts
17-Nov-17 20:49 33.395396 -117.610280 315 6026ft 97kts
17-Nov-17 20:50 33.415110 -117.632257 320 6025ft 97kts
17-Nov-17 20:51 33.434662 -117.653986 312 6028ft 97kts
17-Nov-17 20:52 33.453275 -117.677429 313 6022ft 98kts
17-Nov-17 20:53 33.472323 -117.700618 312 6019ft 98kts
17-Nov-17 20:54 33.491195 -117.724281 311 6019ft 98kts
17-Nov-17 20:55 33.510055 -117.747856 310 6019ft 98kts
17-Nov-17 20:56 33.529876 -117.771034 313 6019ft 100kts
17-Nov-17 20:57 33.549453 -117.792827 313 6019ft 101kts
17-Nov-17 20:58 33.569999 -117.815769 313 6019ft 101kts
17-Nov-17 20:59 33.590420 -117.838657 312 6018ft 101kts
17-Nov-17 21:00 33.610958 -117.861763 312 6018ft 101kts
17-Nov-17 21:01 33.631204 -117.884597 312 6018ft 98kts
17-Nov-17 21:02 33.651156 -117.907286 312 6018ft 98kts
17-Nov-17 21:03 33.671013 -117.930535 312 5890ft 105kts
17-Nov-17 21:04 33.692448 -117.956026 312 5499ft 111kts
17-Nov-17 21:05 33.714127 -117.982535 312 5097ft 111kts
17-Nov-17 21:06 33.735390 -118.009451 312 4695ft 111kts
17-Nov-17 21:07 33.756172 -118.036943 312 4303ft 110kts
17-Nov-17 21:08 33.775622 -118.064696 293 3985ft 110kts
17-Nov-17 21:09 33.758090 -118.094671 235 3227ft 112kts
17-Nov-17 21:10 33.740116 -118.122275 237 2540ft 103kts
17-Nov-17 21:11 33.722588 -118.150255 236 2105ft 96kts
17-Nov-17 21:12 33.707527 -118.174398 238 2097ft 93kts
17-Nov-17 21:13 33.714975 -118.201999 308 2113ft 106kts
17-Nov-17 21:14 33.733435 -118.229572 307 2104ft 102kts
17-Nov-17 21:15 33.748876 -118.252724 307 2088ft 91kts
17-Nov-17 21:16 33.764808 -118.276627 305 1785ft 87kts
17-Nov-17 21:17 33.778104 -118.296703 304 1204ft 73kts
17-Nov-17 21:18 33.787719 -118.312068 299 749ft 56kts
17-Nov-17 21:19 33.797390 -118.329307 301 323ft 59kts
17-Nov-17 21:20 33.804554 -118.340424 306 97ft 23kts
17-Nov-17 21:21 33.805792 -118.343551 290 94ft 0kts
17-Nov-17 21:22 33.804767 -118.345899 138 95ft 10kts
17-Nov-17 21:23 33.802585 -118.343377 128 100ft 0kts
17-Nov-17 21:24 33.802585 -118.343377 128 100ft 0kts
17-Nov-17 21:25 33.802585 -118.343377 128 100ft 0kts
17-Nov-17 21:26 33.802585 -118.343377 128 100ft 0kts
17-Nov-17 21:27 33.802585 -118.343377 128 100ft 0kts

Navigation Log

Ident Type
Flight plan parsing failed, navigation log unavailable